Time;durP1;ratioP1;P1;durP2;ratioP2;P2;SDS_P1;SDS_P2;PMS_P1;PMS_P2;Temp;Humidity;BMP_temperature;BMP_pressure;BME280_temperature;BME280_humidity;BME280_pressure;Samples;Min_cycle;Max_cycle;Signal;HPM_P1;HPM_P2
2023/05/04 00:00:46;;;;;;;11.40;7.27;;;10.00;1.00;;;;;;5052429;28;20211;-53
2023/05/04 00:03:12;;;;;;;10.17;6.10;;;9.90;1.00;;;;;;5049269;28;20279;-52
2023/05/04 00:05:38;;;;;;;7.83;6.80;;;9.90;1.00;;;;;;5055278;28;20344;-55
2023/05/04 00:08:04;;;;;;;8.33;6.67;;;9.90;1.00;;;;;;5050847;28;20951;-54
2023/05/04 00:10:30;;;;;;;7.00;6.30;;;9.80;1.00;;;;;;5048203;28;20277;-52
2023/05/04 00:12:55;;;;;;;6.53;5.93;;;9.80;1.00;;;;;;5050326;28;20195;-56
2023/05/04 00:15:21;;;;;;;9.03;6.00;;;9.80;1.00;;;;;;5049728;28;20955;-54
2023/05/04 00:17:47;;;;;;;12.53;7.13;;;9.80;1.00;;;;;;5053388;28;20495;-54
2023/05/04 00:20:12;;;;;;;7.70;6.63;;;9.80;1.00;;;;;;5051345;28;22649;-56
2023/05/04 00:22:38;;;;;;;8.67;7.17;;;9.70;1.00;;;;;;5062957;28;20188;-55
2023/05/04 00:25:05;;;;;;;7.27;6.57;;;9.60;1.00;;;;;;5056342;28;20195;-52
2023/05/04 00:27:31;;;;;;;7.40;6.70;;;9.70;1.00;;;;;;5067688;28;20548;-55
2023/05/04 00:29:56;;;;;;;7.70;6.67;;;9.70;1.00;;;;;;5067539;28;20460;-56
2023/05/04 00:32:22;;;;;;;7.50;6.70;;;9.70;1.00;;;;;;5068656;28;20188;-54
2023/05/04 00:34:48;;;;;;;7.53;6.63;;;9.70;1.00;;;;;;5063935;28;20332;-53
2023/05/04 00:37:13;;;;;;;13.10;6.80;;;9.50;1.00;;;;;;5071311;28;20192;-54
2023/05/04 00:39:39;;;;;;;7.20;6.50;;;9.50;1.00;;;;;;5067913;28;20196;-54
2023/05/04 00:42:05;;;;;;;10.63;6.60;;;9.50;1.00;;;;;;5063006;28;20370;-53
2023/05/04 00:44:30;;;;;;;7.03;6.33;;;9.50;1.00;;;;;;5064369;28;20278;-52
2023/05/04 00:46:56;;;;;;;10.77;6.77;;;9.40;1.00;;;;;;5067552;28;20280;-53
2023/05/04 00:49:23;;;;;;;7.57;6.13;;;9.40;1.00;;;;;;5069002;28;20274;-54
2023/05/04 00:51:50;;;;;;;8.73;7.83;;;9.40;1.00;;;;;;5069193;28;20599;-54
2023/05/04 00:54:19;;;;;;;9.27;6.90;;;9.40;1.00;;;;;;5062776;28;20459;-54
2023/05/04 00:56:45;;;;;;;10.40;6.63;;;9.30;1.00;;;;;;5069701;28;20485;-51
2023/05/04 00:59:12;;;;;;;7.30;6.33;;;9.30;1.00;;;;;;5067528;28;20462;-57
2023/05/04 01:01:38;;;;;;;7.20;6.57;;;9.20;1.00;;;;;;5065129;28;20947;-53
2023/05/04 01:04:05;;;;;;;7.60;6.67;;;9.20;1.00;;;;;;5067310;28;20438;-54
2023/05/04 01:07:02;;;;;;;7.23;6.53;;;9.10;1.00;;;;;;5068678;28;21023;-53
2023/05/04 01:09:31;;;;;;;11.10;6.60;;;9.10;1.00;;;;;;5062550;28;20445;-52
2023/05/04 01:12:34;;;;;;;8.17;6.40;;;9.10;1.00;;;;;;5060930;28;20451;-55
2023/05/04 01:15:01;;;;;;;6.67;6.03;;;9.10;1.00;;;;;;5064361;28;20454;-53
2023/05/04 01:17:27;;;;;;;7.40;6.70;;;9.00;1.00;;;;;;5069887;28;20501;-54
2023/05/04 01:19:53;;;;;;;6.93;6.30;;;9.10;1.00;;;;;;5066811;28;20819;-54
2023/05/04 01:22:19;;;;;;;8.17;7.33;;;9.00;1.00;;;;;;5070577;28;20196;-53
2023/05/04 01:24:45;;;;;;;7.70;6.90;;;9.00;1.00;;;;;;5068153;28;20538;-55
2023/05/04 01:27:25;;;;;;;7.80;7.00;;;9.00;1.00;;;;;;5062973;28;20447;-53
2023/05/04 01:30:00;;;;;;;7.70;7.00;;;8.90;1.00;;;;;;5063718;28;20180;-55
2023/05/04 01:32:31;;;;;;;7.57;6.03;;;8.80;1.00;;;;;;5066154;28;20514;-55
2023/05/04 01:34:57;;;;;;;8.77;7.47;;;8.80;1.00;;;;;;5066748;28;20666;-53
2023/05/04 01:37:23;;;;;;;9.93;6.73;;;8.70;1.00;;;;;;5066501;28;20454;-53
2023/05/04 01:39:48;;;;;;;7.93;6.80;;;8.70;1.00;;;;;;5067345;28;20538;-55
2023/05/04 01:42:14;;;;;;;9.40;7.10;;;8.70;1.00;;;;;;5063651;28;20203;-53
2023/05/04 01:44:40;;;;;;;7.57;6.87;;;8.70;1.00;;;;;;5063086;28;20188;-55
2023/05/04 01:47:06;;;;;;;9.47;7.40;;;8.70;1.00;;;;;;5061721;28;20182;-57
2023/05/04 01:49:31;;;;;;;9.77;6.70;;;8.70;1.00;;;;;;5067541;28;20180;-54
2023/05/04 01:51:58;;;;;;;10.13;7.07;;;8.70;1.00;;;;;;5067911;28;20680;-53
2023/05/04 01:54:23;;;;;;;9.67;6.70;;;8.70;1.00;;;;;;5064973;28;20195;-52
2023/05/04 01:56:49;;;;;;;7.93;6.70;;;8.60;1.00;;;;;;5072653;28;20469;-53
2023/05/04 01:59:14;;;;;;;7.83;7.03;;;8.60;1.00;;;;;;5062425;28;20278;-53
2023/05/04 02:01:40;;;;;;;9.50;6.73;;;8.60;1.00;;;;;;5065733;28;20203;-54
2023/05/04 02:04:06;;;;;;;8.60;6.50;;;8.50;1.00;;;;;;5065052;28;20251;-55
2023/05/04 02:06:32;;;;;;;7.67;6.97;;;8.50;1.00;;;;;;5069243;28;20253;-56
2023/05/04 02:08:58;;;;;;;7.60;6.20;;;8.50;1.00;;;;;;5058582;28;20442;-53
2023/05/04 02:11:23;;;;;;;8.53;6.60;;;8.60;1.00;;;;;;5066209;28;20237;-53
2023/05/04 02:13:49;;;;;;;7.87;6.60;;;8.50;1.00;;;;;;5066248;28;20191;-54
2023/05/04 02:16:14;;;;;;;8.23;6.70;;;8.50;1.00;;;;;;5060935;28;20227;-55
2023/05/04 02:18:40;;;;;;;6.93;6.30;;;8.50;1.00;;;;;;5065727;28;20320;-54
2023/05/04 02:21:06;;;;;;;6.73;6.03;;;8.50;1.00;;;;;;5063320;28;20218;-56
2023/05/04 02:23:31;;;;;;;7.23;6.53;;;8.50;1.00;;;;;;5065508;28;20188;-52
2023/05/04 02:25:57;;;;;;;8.20;7.10;;;8.50;1.00;;;;;;5063768;28;20183;-54
2023/05/04 02:28:22;;;;;;;7.07;6.40;;;8.50;1.00;;;;;;5067336;28;20260;-55
2023/05/04 02:30:48;;;;;;;7.57;6.87;;;8.40;1.00;;;;;;5062570;28;20654;-55
2023/05/04 02:33:14;;;;;;;11.30;7.13;;;8.30;1.00;;;;;;5063097;28;20195;-54
2023/05/04 02:35:40;;;;;;;6.93;6.27;;;8.30;1.00;;;;;;5062358;28;20227;-53
2023/05/04 02:38:05;;;;;;;7.30;6.60;;;8.30;1.00;;;;;;5063449;28;20179;-54
2023/05/04 02:40:32;;;;;;;6.40;5.80;;;8.30;1.00;;;;;;5066783;28;20489;-55
2023/05/04 02:42:57;;;;;;;8.17;6.47;;;8.30;1.00;;;;;;5062137;28;20188;-54
2023/05/04 02:45:23;;;;;;;7.77;7.03;;;8.20;1.00;;;;;;5065400;28;20446;-55
2023/05/04 02:47:48;;;;;;;7.00;6.30;;;8.20;1.00;;;;;;5067690;28;20191;-54
2023/05/04 02:50:14;;;;;;;8.17;6.10;;;8.30;1.00;;;;;;5065317;28;20441;-53
2023/05/04 02:52:40;;;;;;;7.40;6.60;;;8.20;1.00;;;;;;5067291;28;20231;-54
2023/05/04 02:55:06;;;;;;;9.70;7.27;;;8.30;1.00;;;;;;5060919;28;20232;-54
2023/05/04 02:57:31;;;;;;;10.07;6.80;;;8.20;1.00;;;;;;5061579;28;20235;-54
2023/05/04 02:59:57;;;;;;;6.90;6.20;;;8.10;1.00;;;;;;5064342;28;20572;-54
2023/05/04 03:02:23;;;;;;;8.60;6.40;;;8.20;1.00;;;;;;5052539;28;20184;-56
2023/05/04 03:04:48;;;;;;;8.00;6.77;;;8.20;1.00;;;;;;5061354;28;20653;-53
2023/05/04 03:07:14;;;;;;;8.40;7.17;;;8.00;1.00;;;;;;5059567;28;20632;-52
2023/05/04 03:09:40;;;;;;;7.70;6.90;;;7.90;1.00;;;;;;5053811;28;20206;-54
2023/05/04 03:12:05;;;;;;;8.43;7.50;;;8.00;1.00;;;;;;5064851;28;20195;-55
2023/05/04 03:14:31;;;;;;;7.77;6.83;;;7.90;1.00;;;;;;5065359;28;20299;-53
2023/05/04 03:16:57;;;;;;;11.17;7.80;;;7.90;1.00;;;;;;5063717;28;20245;-55
2023/05/04 03:19:22;;;;;;;8.37;7.47;;;7.80;1.00;;;;;;5064964;28;20195;-55
2023/05/04 03:21:48;;;;;;;7.90;7.10;;;7.80;1.00;;;;;;5069451;28;20470;-53
2023/05/04 03:24:17;;;;;;;9.00;6.83;;;7.80;1.00;;;;;;5066435;28;20192;-55
2023/05/04 03:26:43;;;;;;;8.57;6.97;;;7.80;1.00;;;;;;5095143;28;20199;-55
2023/05/04 03:29:09;;;;;;;9.37;6.37;;;7.80;1.00;;;;;;5063567;28;20825;-55
2023/05/04 03:31:35;;;;;;;7.73;6.57;;;7.80;1.00;;;;;;5062869;28;20191;-52
2023/05/04 03:34:01;;;;;;;10.17;6.73;;;7.80;1.00;;;;;;5063439;28;20930;-53
2023/05/04 03:36:26;;;;;;;10.03;7.43;;;7.80;1.00;;;;;;5065789;28;20242;-55
2023/05/04 03:38:52;;;;;;;8.80;7.40;;;7.80;1.00;;;;;;5065225;28;20222;-54
2023/05/04 03:41:17;;;;;;;9.33;7.73;;;7.80;1.00;;;;;;5067285;28;20298;-55
2023/05/04 03:43:43;;;;;;;10.30;8.17;;;7.80;1.00;;;;;;5058283;28;20448;-51
2023/05/04 03:46:09;;;;;;;9.60;7.13;;;7.80;1.00;;;;;;5066214;28;20190;-52
2023/05/04 03:48:34;;;;;;;7.73;6.43;;;7.70;1.00;;;;;;5065597;28;20180;-52
2023/05/04 03:51:00;;;;;;;9.23;7.20;;;7.70;1.00;;;;;;5065837;28;20211;-55
2023/05/04 03:53:26;;;;;;;12.53;7.83;;;7.70;1.00;;;;;;5068395;28;20641;-54
2023/05/04 03:55:51;;;;;;;8.87;7.77;;;7.80;1.00;;;;;;5066901;28;20220;-54
2023/05/04 03:58:17;;;;;;;7.70;6.90;;;7.80;1.00;;;;;;5068063;28;20179;-55
2023/05/04 04:00:42;;;;;;;8.43;7.03;;;7.80;1.00;;;;;;5066963;28;20207;-54
2023/05/04 04:03:08;;;;;;;8.10;7.30;;;7.80;1.00;;;;;;5070066;28;20241;-54
2023/05/04 04:05:34;;;;;;;8.33;7.50;;;7.80;1.00;;;;;;5077206;28;20193;-57
2023/05/04 04:08:00;;;;;;;7.80;6.87;;;7.80;1.00;;;;;;5071667;28;20176;-57
2023/05/04 04:10:25;;;;;;;9.80;7.20;;;7.90;1.00;;;;;;5072693;28;20194;-59
2023/05/04 04:12:51;;;;;;;13.23;7.40;;;7.90;1.00;;;;;;5077534;28;20659;-57
2023/05/04 04:15:16;;;;;;;9.33;7.47;;;8.00;1.00;;;;;;5070564;28;20275;-57
2023/05/04 04:17:42;;;;;;;9.33;7.23;;;8.00;1.00;;;;;;5070633;28;20629;-57
2023/05/04 04:20:08;;;;;;;10.00;7.47;;;8.10;1.00;;;;;;5070776;28;20192;-53
2023/05/04 04:22:35;;;;;;;14.27;7.43;;;8.10;1.00;;;;;;5069838;28;20195;-54
2023/05/04 04:25:01;;;;;;;8.40;7.20;;;8.10;1.00;;;;;;5069750;28;20931;-53
2023/05/04 04:27:26;;;;;;;10.57;8.03;;;8.00;1.00;;;;;;5068751;28;20450;-53
2023/05/04 04:29:52;;;;;;;9.17;7.73;;;8.00;1.00;;;;;;5069419;28;20187;-53
2023/05/04 04:32:18;;;;;;;10.03;8.03;;;8.10;1.00;;;;;;5068175;28;20210;-55
2023/05/04 04:34:43;;;;;;;9.17;7.17;;;8.20;1.00;;;;;;5064343;28;20538;-60
2023/05/04 04:37:09;;;;;;;10.00;7.80;;;8.10;1.00;;;;;;5069153;28;20450;-59
2023/05/04 04:39:35;;;;;;;12.33;7.03;;;8.20;1.00;;;;;;5067758;28;20176;-59
2023/05/04 04:42:01;;;;;;;9.00;7.40;;;8.20;1.00;;;;;;5077014;28;20212;-59
2023/05/04 04:44:27;;;;;;;10.03;8.30;;;8.30;1.00;;;;;;5067016;28;20192;-60
2023/05/04 04:46:53;;;;;;;8.60;7.60;;;8.40;1.00;;;;;;5074360;28;20521;-57
2023/05/04 04:49:18;;;;;;;9.50;8.53;;;8.40;1.00;;;;;;5065686;28;20776;-57
2023/05/04 04:51:44;;;;;;;7.93;7.20;;;8.50;1.00;;;;;;5072868;28;20216;-58
2023/05/04 04:54:10;;;;;;;10.87;7.20;;;8.50;1.00;;;;;;5065596;28;20560;-58
2023/05/04 04:56:38;;;;;;;8.20;7.40;;;8.50;1.00;;;;;;5068321;28;21001;-59
2023/05/04 04:59:03;;;;;;;7.93;7.13;;;8.60;1.00;;;;;;5064254;28;20278;-58
2023/05/04 05:01:30;;;;;;;12.57;8.10;;;8.70;1.00;;;;;;5067602;28;21022;-56
2023/05/04 05:03:55;;;;;;;11.50;7.60;;;8.80;1.00;;;;;;5063152;28;20279;-58
2023/05/04 05:06:22;;;;;;;14.10;7.20;;;8.80;1.00;;;;;;5065957;28;20549;-57
2023/05/04 05:08:48;;;;;;;8.63;7.10;;;8.90;1.00;;;;;;5065709;28;20656;-58
2023/05/04 05:11:13;;;;;;;9.13;7.60;;;9.00;1.00;;;;;;5078576;28;20535;-57
2023/05/04 05:13:39;;;;;;;17.23;7.70;;;9.00;1.00;;;;;;5065164;28;20195;-57
2023/05/04 05:16:05;;;;;;;9.23;7.80;;;9.10;1.00;;;;;;5068823;28;20584;-58
2023/05/04 05:18:31;;;;;;;8.80;7.70;;;9.20;1.00;;;;;;5066599;28;20325;-58
2023/05/04 05:20:56;;;;;;;10.93;8.60;;;9.30;1.00;;;;;;5069334;28;20466;-59
2023/05/04 05:23:22;;;;;;;8.33;7.53;;;9.30;1.00;;;;;;5066636;28;20235;-58
2023/05/04 05:25:48;;;;;;;8.47;7.63;;;9.30;1.00;;;;;;5063915;28;20191;-58
2023/05/04 05:28:13;;;;;;;10.20;8.10;;;9.40;1.00;;;;;;5063489;28;20913;-58
2023/05/04 05:30:39;;;;;;;8.57;7.77;;;9.40;1.00;;;;;;5065558;28;20184;-58
2023/05/04 05:33:04;;;;;;;9.43;8.20;;;9.70;1.00;;;;;;5069816;28;20558;-58
2023/05/04 05:35:30;;;;;;;8.20;7.40;;;9.90;1.00;;;;;;5073657;28;20183;-59
2023/05/04 05:37:56;;;;;;;11.87;8.70;;;10.00;1.00;;;;;;5072877;28;20533;-58
2023/05/04 05:40:22;;;;;;;10.00;7.40;;;10.20;1.00;;;;;;5066492;28;20676;-58
2023/05/04 05:42:48;;;;;;;14.07;8.10;;;10.30;1.00;;;;;;5079433;28;20530;-58
2023/05/04 05:45:14;;;;;;;10.50;7.03;;;10.40;1.00;;;;;;5062832;28;20211;-58
2023/05/04 05:47:39;;;;;;;9.83;7.60;;;10.40;1.00;;;;;;5075490;28;20192;-57
2023/05/04 05:50:06;;;;;;;8.73;7.97;;;10.60;1.00;;;;;;5068008;28;20442;-58
2023/05/04 05:52:32;;;;;;;11.60;7.57;;;10.80;1.00;;;;;;5069239;28;20587;-58
2023/05/04 05:54:57;;;;;;;8.30;7.50;;;10.90;1.00;;;;;;5063675;28;20588;-57
2023/05/04 05:57:23;;;;;;;8.10;7.30;;;11.10;1.00;;;;;;5066069;28;20301;-58
2023/05/04 05:59:49;;;;;;;9.33;8.23;;;11.10;1.00;;;;;;5069107;28;20606;-58
2023/05/04 06:02:14;;;;;;;10.77;7.60;;;11.30;99.90;;;;;;5074061;28;20183;-59
2023/05/04 06:04:41;;;;;;;10.30;9.30;;;11.40;99.90;;;;;;5081105;28;20437;-57
2023/05/04 06:07:07;;;;;;;8.90;7.33;;;11.60;99.90;;;;;;5079005;28;20382;-59
2023/05/04 06:09:32;;;;;;;10.03;7.43;;;11.70;99.90;;;;;;5093156;28;20602;-58
2023/05/04 06:11:58;;;;;;;9.40;7.77;;;11.90;99.90;;;;;;5069743;28;20182;-58
2023/05/04 06:14:24;;;;;;;8.97;7.67;;;12.10;99.90;;;;;;5067988;28;20187;-57
2023/05/04 06:16:49;;;;;;;9.33;6.77;;;12.30;99.90;;;;;;5064689;28;20282;-58
2023/05/04 06:19:15;;;;;;;16.00;8.20;;;12.50;99.90;;;;;;5065389;28;20187;-57
2023/05/04 06:21:41;;;;;;;12.37;8.37;;;12.50;99.90;;;;;;5065566;28;20216;-58
2023/05/04 06:24:06;;;;;;;8.27;7.40;;;12.60;99.90;;;;;;5071542;28;20317;-57
2023/05/04 06:26:32;;;;;;;8.00;7.20;;;12.60;99.90;;;;;;5065063;28;20537;-59
2023/05/04 06:28:58;;;;;;;9.67;7.30;;;12.70;99.90;;;;;;5069305;28;20192;-59
2023/05/04 06:31:23;;;;;;;11.17;7.40;;;12.90;99.90;;;;;;5068050;28;20276;-57
2023/05/04 06:33:49;;;;;;;7.50;6.80;;;13.10;99.90;;;;;;5068792;28;20653;-59
2023/05/04 06:36:15;;;;;;;10.50;6.67;;;13.20;99.90;;;;;;5076077;28;20191;-58
2023/05/04 06:38:41;;;;;;;6.80;6.27;;;13.20;99.90;;;;;;5075344;28;20472;-57
2023/05/04 06:41:07;;;;;;;9.30;7.33;;;13.20;99.90;;;;;;5066437;28;20540;-57
2023/05/04 06:43:32;;;;;;;9.50;6.90;;;13.20;99.90;;;;;;5067664;28;20206;-58
2023/05/04 06:46:02;;;;;;;9.07;7.50;;;13.20;99.90;;;;;;5083736;28;20637;-59
2023/05/04 06:48:29;;;;;;;15.57;7.50;;;13.20;99.90;;;;;;5063083;28;20184;-58
2023/05/04 06:50:56;;;;;;;7.60;6.10;;;13.30;99.90;;;;;;5072978;28;20983;-58
2023/05/04 06:53:22;;;;;;;10.67;6.80;;;13.50;99.90;;;;;;5073667;28;20455;-58
2023/05/04 06:55:47;;;;;;;7.93;7.13;;;13.70;99.90;;;;;;5064478;28;20986;-60
2023/05/04 06:58:17;;;;;;;12.13;5.97;;;13.90;99.90;;;;;;5064358;28;20449;-58
2023/05/04 07:00:43;;;;;;;7.13;5.97;;;14.10;99.90;;;;;;5062703;28;21843;-58
2023/05/04 07:03:10;;;;;;;6.90;6.30;;;14.30;99.90;;;;;;5067342;28;20504;-58
2023/05/04 07:05:36;;;;;;;6.87;5.80;;;14.40;99.90;;;;;;5063453;28;20420;-57
2023/05/04 07:08:02;;;;;;;6.70;5.87;;;14.50;99.90;;;;;;5069864;28;20190;-58
2023/05/04 07:10:28;;;;;;;6.30;5.70;;;14.60;99.90;;;;;;5067467;28;20442;-58
2023/05/04 07:12:54;;;;;;;7.00;6.30;;;14.80;99.90;;;;;;5073196;28;20191;-59
2023/05/04 07:15:20;;;;;;;7.70;5.30;;;15.00;99.90;;;;;;5057644;28;20253;-60
2023/05/04 07:17:46;;;;;;;6.30;5.77;;;15.30;99.90;;;;;;5067931;28;20479;-58
2023/05/04 07:20:13;;;;;;;5.63;5.13;;;15.50;99.90;;;;;;5062673;28;20227;-58
2023/05/04 07:22:39;;;;;;;7.33;5.67;;;15.70;99.90;;;;;;5073005;28;20456;-59
2023/05/04 07:25:05;;;;;;;9.40;6.60;;;15.90;99.90;;;;;;5070398;28;20438;-58
2023/05/04 07:27:31;;;;;;;8.07;5.63;;;16.20;99.90;;;;;;5078727;28;20229;-58
2023/05/04 07:29:56;;;;;;;6.70;6.10;;;16.50;99.90;;;;;;5070149;28;20515;-59
2023/05/04 07:32:22;;;;;;;9.23;6.20;;;16.60;99.90;;;;;;5089937;28;20189;-58
2023/05/04 07:34:47;;;;;;;6.57;5.73;;;16.70;99.90;;;;;;5083137;28;20179;-59
2023/05/04 07:37:14;;;;;;;7.73;6.33;;;16.80;99.90;;;;;;5069326;28;20188;-58
2023/05/04 07:39:40;;;;;;;7.80;5.40;;;16.90;99.90;;;;;;5079836;28;20175;-58
2023/05/04 07:42:07;;;;;;;7.53;5.80;;;16.90;99.90;;;;;;5080069;28;20971;-58
2023/05/04 07:44:33;;;;;;;9.20;6.30;;;16.90;99.90;;;;;;5070375;28;20180;-58
2023/05/04 07:46:59;;;;;;;8.07;5.87;;;16.90;99.90;;;;;;5087036;28;20785;-58
2023/05/04 07:49:25;;;;;;;5.47;4.90;;;17.10;99.90;;;;;;5078765;28;20233;-59
2023/05/04 07:51:51;;;;;;;6.83;5.33;;;17.20;99.90;;;;;;5074162;28;20509;-59
2023/05/04 07:54:17;;;;;;;6.07;5.47;;;17.50;99.90;;;;;;5086070;28;20477;-59
2023/05/04 07:56:43;;;;;;;8.07;4.07;;;17.80;99.90;;;;;;5077506;28;20227;-59
2023/05/04 07:59:08;;;;;;;13.03;4.90;;;17.90;99.90;;;;;;5069793;28;20202;-58
2023/05/04 08:01:34;;;;;;;6.63;4.10;;;18.20;99.90;;;;;;5075621;28;21008;-58
2023/05/04 08:04:00;;;;;;;6.83;4.80;;;18.20;99.90;;;;;;5089608;28;20211;-59
2023/05/04 08:06:26;;;;;;;9.90;5.30;;;18.30;99.90;;;;;;5076905;28;20180;-59
2023/05/04 08:08:51;;;;;;;4.50;3.93;;;18.20;99.90;;;;;;5067090;28;20266;-58
2023/05/04 08:11:17;;;;;;;9.60;4.77;;;18.20;99.90;;;;;;5068288;28;20192;-57
2023/05/04 08:13:48;;;;;;;7.70;4.50;;;18.20;99.90;;;;;;5082511;28;20227;-58
2023/05/04 08:16:13;;;;;;;5.27;4.17;;;18.40;99.90;;;;;;5077490;28;20196;-58
2023/05/04 08:18:39;;;;;;;7.17;3.70;;;18.60;99.90;;;;;;5068857;28;20491;-58
2023/05/04 08:21:05;;;;;;;5.30;4.00;;;18.50;99.90;;;;;;5087023;28;20198;-59
2023/05/04 08:23:32;;;;;;;5.60;3.97;;;18.50;99.90;;;;;;5079469;28;20206;-60
2023/05/04 08:26:01;;;;;;;4.80;3.60;;;18.30;99.90;;;;;;5069679;28;20438;-58
2023/05/04 08:28:27;;;;;;;5.00;3.47;;;18.10;99.90;;;;;;5069285;28;20481;-58
2023/05/04 08:30:53;;;;;;;5.23;3.90;;;18.10;99.90;;;;;;5083660;28;20412;-58
2023/05/04 08:33:18;;;;;;;6.10;3.80;;;18.20;99.90;;;;;;5073774;28;20464;-58
2023/05/04 08:35:44;;;;;;;5.97;4.10;;;18.30;99.90;;;;;;5068991;28;20191;-58
2023/05/04 08:38:10;;;;;;;6.00;3.90;;;18.30;99.90;;;;;;5070302;28;20230;-58
2023/05/04 08:40:40;;;;;;;6.00;3.70;;;18.40;99.90;;;;;;5069877;28;20461;-59
2023/05/04 08:43:06;;;;;;;5.83;4.40;;;18.50;99.90;;;;;;5073006;28;20649;-58
2023/05/04 08:45:36;;;;;;;5.23;3.83;;;18.70;99.90;;;;;;5072287;28;20446;-58
2023/05/04 08:48:02;;;;;;;5.10;3.60;;;18.70;99.90;;;;;;5084977;28;20448;-58
2023/05/04 08:50:28;;;;;;;6.83;3.87;;;18.80;99.90;;;;;;5091304;28;20490;-58
2023/05/04 08:52:55;;;;;;;4.33;3.93;;;19.00;99.90;;;;;;5083789;28;20828;-58
2023/05/04 08:55:21;;;;;;;5.23;3.70;;;19.00;99.90;;;;;;5077504;28;20244;-59
2023/05/04 08:57:48;;;;;;;5.20;3.60;;;19.00;99.90;;;;;;5089193;28;20841;-59
2023/05/04 09:00:15;;;;;;;5.20;4.00;;;18.90;99.90;;;;;;5070929;28;20465;-58
2023/05/04 09:02:42;;;;;;;5.80;4.37;;;19.10;99.90;;;;;;5087284;28;20434;-59
2023/05/04 09:05:09;;;;;;;4.87;4.30;;;19.20;99.90;;;;;;5085097;28;20444;-58
2023/05/04 09:07:35;;;;;;;7.73;5.33;;;19.30;99.90;;;;;;5085107;28;20437;-59
2023/05/04 09:10:02;;;;;;;8.40;5.60;;;19.30;99.90;;;;;;5070711;28;20933;-58
2023/05/04 09:12:28;;;;;;;5.90;4.47;;;19.20;99.90;;;;;;5079960;28;20238;-58
2023/05/04 09:14:53;;;;;;;7.97;3.60;;;19.10;99.90;;;;;;5090874;28;20907;-57
2023/05/04 09:17:26;;;;;;;7.33;3.97;;;19.00;99.90;;;;;;5091943;28;20215;-59
2023/05/04 09:20:00;;;;;;;4.37;3.90;;;19.10;99.90;;;;;;5074935;28;20183;-58
2023/05/04 09:22:26;;;;;;;4.07;3.67;;;19.40;99.90;;;;;;5075013;28;20434;-58
2023/05/04 09:24:53;;;;;;;8.13;4.40;;;19.60;99.90;;;;;;5070606;28;20511;-60
2023/05/04 09:27:18;;;;;;;5.30;3.80;;;19.80;99.90;;;;;;5084020;28;20922;-58
2023/05/04 09:29:52;;;;;;;5.97;3.80;;;20.20;99.90;;;;;;5076654;28;20520;-59
2023/05/04 09:32:18;;;;;;;8.30;3.73;;;20.20;99.90;;;;;;5086207;28;20538;-60
2023/05/04 09:34:50;;;;;;;5.33;4.00;;;20.30;99.90;;;;;;5083483;28;20503;-59
2023/05/04 09:37:17;;;;;;;5.80;4.20;;;20.20;99.90;;;;;;5081668;28;20664;-57
2023/05/04 09:39:57;;;;;;;5.60;3.73;;;19.90;99.90;;;;;;5071278;28;20811;-58
2023/05/04 09:42:24;;;;;;;4.50;3.80;;;19.60;99.90;;;;;;5070423;28;20420;-59
2023/05/04 09:45:00;;;;;;;6.90;3.93;;;19.60;99.90;;;;;;5071286;28;20445;-59
2023/05/04 09:47:38;;;;;;;6.23;3.80;;;19.80;99.90;;;;;;5079901;28;20437;-58
2023/05/04 09:50:15;;;;;;;8.13;4.00;;;20.20;99.90;;;;;;5090057;28;20925;-58
2023/05/04 09:52:42;;;;;;;6.50;3.90;;;20.80;99.90;;;;;;5081455;28;20437;-59
2023/05/04 09:55:14;;;;;;;8.53;4.20;;;21.00;99.90;;;;;;5078550;28;20532;-59
2023/05/04 09:57:43;;;;;;;5.33;3.43;;;21.10;99.90;;;;;;5073460;28;20947;-58
2023/05/04 10:00:15;;;;;;;3.97;3.57;;;21.30;99.90;;;;;;5070923;28;20916;-59
2023/05/04 10:02:42;;;;;;;10.60;3.30;;;21.50;99.90;;;;;;5067000;28;20971;-58
2023/05/04 10:05:12;;;;;;;5.73;4.50;;;21.50;99.90;;;;;;5082457;28;20439;-59
2023/05/04 10:07:38;;;;;;;5.73;4.00;;;21.30;99.90;;;;;;5081955;28;20451;-59
2023/05/04 10:10:06;;;;;;;4.20;3.53;;;21.10;99.90;;;;;;5074528;28;20461;-59
2023/05/04 10:12:31;;;;;;;5.70;3.30;;;21.00;99.90;;;;;;5085684;28;20438;-58
2023/05/04 10:14:57;;;;;;;6.63;4.13;;;21.40;99.90;;;;;;5070952;28;20448;-58
2023/05/04 10:18:00;;;;;;;5.30;3.30;;;21.50;99.90;;;;;;5080811;28;20191;-59
2023/05/04 10:20:54;;;;;;;8.27;4.00;;;21.50;99.90;;;;;;5087800;28;20211;-58
2023/05/04 10:23:36;;;;;;;4.33;3.50;;;21.70;99.90;;;;;;5083689;28;20458;-59
2023/05/04 10:26:21;;;;;;;5.87;3.70;;;21.30;99.90;;;;;;5070312;28;20468;-58
2023/05/04 10:29:19;;;;;;;7.50;3.97;;;20.80;99.90;;;;;;5079039;28;20427;-59
2023/05/04 10:31:44;;;;;;;5.47;3.73;;;20.70;99.90;;;;;;5080253;28;20429;-57
2023/05/04 10:34:10;;;;;;;5.27;3.57;;;21.00;99.90;;;;;;5074731;28;20450;-58
2023/05/04 10:36:42;;;;;;;4.23;3.80;;;21.30;99.90;;;;;;5071643;28;20544;-59
2023/05/04 10:39:19;;;;;;;4.23;3.43;;;21.40;99.90;;;;;;5087080;28;20523;-59
2023/05/04 10:42:07;;;;;;;6.37;4.00;;;21.60;99.90;;;;;;5070676;28;20462;-58
2023/05/04 10:44:36;;;;;;;7.17;3.90;;;21.50;99.90;;;;;;5090034;28;20430;-59
2023/05/04 10:47:04;;;;;;;8.90;3.80;;;21.50;99.90;;;;;;5088033;28;20408;-60
2023/05/04 10:49:30;;;;;;;3.47;3.00;;;21.80;99.90;;;;;;5079189;28;20456;-58
2023/05/04 10:52:10;;;;;;;3.53;3.23;;;22.20;99.90;;;;;;5080799;28;20429;-59
2023/05/04 10:54:36;;;;;;;3.97;3.00;;;22.30;99.90;;;;;;5069670;28;20991;-59
2023/05/04 10:57:07;;;;;;;3.40;3.10;;;22.30;99.90;;;;;;5077330;28;20813;-58
2023/05/04 10:59:34;;;;;;;6.73;3.80;;;22.40;99.90;;;;;;5069809;28;20446;-58
2023/05/04 11:02:03;;;;;;;3.80;2.70;;;22.50;99.90;;;;;;5087457;28;20956;-59
2023/05/04 11:04:30;;;;;;;7.00;3.63;;;22.50;99.90;;;;;;5089724;28;20435;-59
2023/05/04 11:07:04;;;;;;;7.93;3.60;;;22.40;99.90;;;;;;5086456;28;20437;-60
2023/05/04 11:09:43;;;;;;;5.10;3.87;;;22.60;99.90;;;;;;5075045;28;20963;-59
2023/05/04 11:12:11;;;;;;;4.17;2.60;;;22.80;99.90;;;;;;5070420;28;20447;-59
2023/05/04 11:14:41;;;;;;;8.80;3.57;;;22.90;99.90;;;;;;5076873;28;20521;-60
2023/05/04 11:17:09;;;;;;;6.10;3.27;;;22.60;99.90;;;;;;5071093;28;20453;-58
2023/05/04 11:19:35;;;;;;;5.43;3.33;;;22.40;99.90;;;;;;5076708;28;20438;-59
2023/05/04 11:22:01;;;;;;;3.73;3.10;;;22.30;99.90;;;;;;5081215;28;21034;-59
2023/05/04 11:24:41;;;;;;;6.10;3.70;;;22.60;99.90;;;;;;5075667;28;20442;-59
2023/05/04 11:27:07;;;;;;;5.90;3.40;;;22.40;99.90;;;;;;5081582;28;20441;-58
2023/05/04 11:29:33;;;;;;;5.83;2.80;;;22.50;99.90;;;;;;5076689;28;20430;-59
2023/05/04 11:31:58;;;;;;;6.53;3.27;;;22.50;99.90;;;;;;5078526;28;20578;-58
2023/05/04 11:34:24;;;;;;;4.70;3.27;;;22.70;99.90;;;;;;5078848;28;20297;-58
2023/05/04 11:36:50;;;;;;;5.83;3.00;;;22.60;99.90;;;;;;5080467;28;20620;-58
2023/05/04 11:39:16;;;;;;;5.27;3.63;;;22.60;99.90;;;;;;5059206;28;20253;-60
2023/05/04 11:41:43;;;;;;;3.80;3.10;;;22.70;99.90;;;;;;5065371;28;20517;-60
2023/05/04 11:44:09;;;;;;;7.53;3.37;;;22.90;99.90;;;;;;5078926;28;20185;-58
2023/05/04 11:46:35;;;;;;;3.83;3.17;;;23.20;99.90;;;;;;5076101;28;20609;-58
2023/05/04 11:49:02;;;;;;;4.03;3.70;;;23.30;99.90;;;;;;5078982;28;20428;-59
2023/05/04 11:51:28;;;;;;;8.03;3.27;;;23.00;99.90;;;;;;5059485;28;20594;-59
2023/05/04 11:53:54;;;;;;;4.93;3.33;;;22.90;99.90;;;;;;5072653;28;20968;-59
2023/05/04 11:56:20;;;;;;;5.63;3.27;;;23.00;99.90;;;;;;5081653;28;20444;-60
2023/05/04 11:58:46;;;;;;;5.17;3.37;;;23.00;99.90;;;;;;5069867;28;20467;-57
2023/05/04 12:01:12;;;;;;;4.30;2.70;;;22.80;99.90;;;;;;5086768;28;20853;-58
2023/05/04 12:03:40;;;;;;;6.47;3.23;;;22.40;99.90;;;;;;5070097;28;20184;-59
2023/05/04 12:06:06;;;;;;;5.10;3.23;;;22.50;99.90;;;;;;5069362;28;21348;-58
2023/05/04 12:08:33;;;;;;;4.50;3.47;;;22.70;99.90;;;;;;5068853;28;21012;-58
2023/05/04 12:11:24;;;;;;;6.60;3.00;;;22.90;99.90;;;;;;5070815;28;20508;-59
2023/05/04 12:14:02;;;;;;;4.37;2.97;;;23.20;99.90;;;;;;5073614;28;20541;-59
2023/05/04 12:16:27;;;;;;;4.97;3.73;;;23.30;99.90;;;;;;5070201;28;20442;-57
2023/05/04 12:19:05;;;;;;;5.23;3.00;;;23.20;99.90;;;;;;5078177;28;20447;-58
2023/05/04 12:21:32;;;;;;;4.67;3.40;;;23.00;99.90;;;;;;5068411;28;20195;-57
2023/05/04 12:23:58;;;;;;;5.67;3.10;;;23.10;99.90;;;;;;5073701;28;20433;-59
2023/05/04 12:26:25;;;;;;;5.03;3.13;;;23.40;99.90;;;;;;5068092;28;20955;-58
2023/05/04 12:28:50;;;;;;;6.27;3.60;;;23.50;99.90;;;;;;5081524;28;20439;-58
2023/05/04 12:31:16;;;;;;;8.40;3.17;;;23.70;99.90;;;;;;5076693;28;20430;-58
2023/05/04 12:33:42;;;;;;;4.07;2.87;;;23.10;99.90;;;;;;5066460;28;20184;-58
2023/05/04 12:36:09;;;;;;;4.20;2.80;;;23.00;99.90;;;;;;5070637;28;20540;-59
2023/05/04 12:38:34;;;;;;;5.13;3.33;;;23.10;99.90;;;;;;5072019;28;20198;-59
2023/05/04 12:41:03;;;;;;;4.70;3.60;;;23.00;99.90;;;;;;5081670;28;20458;-59
2023/05/04 12:43:32;;;;;;;4.33;2.97;;;22.80;99.90;;;;;;5071661;28;20247;-59
2023/05/04 12:45:58;;;;;;;5.30;3.03;;;22.90;99.90;;;;;;5072472;28;20831;-58
2023/05/04 12:48:27;;;;;;;4.03;3.33;;;23.20;99.90;;;;;;5072007;28;20405;-59
2023/05/04 12:50:52;;;;;;;7.13;2.70;;;23.50;99.90;;;;;;5071997;28;20426;-59
2023/05/04 12:53:21;;;;;;;5.13;2.83;;;23.70;99.90;;;;;;5088861;28;20916;-60
2023/05/04 12:55:46;;;;;;;4.63;3.30;;;23.70;99.90;;;;;;5090168;28;20214;-59